Flight Track Log - Related Links

Times and Time Zones

All times are in EDT time to prevent confusion due to time zone crossing. See the CPT7773 flight status page for this flight to view local times or setup timezone preferences in your user account.

Time Position Orientation Groundspeed Altitude Reporting Facility
EDT Latitude Longitude Course Direction KTS MPH feet Rate Location/Type
Tue 08:16:00 PM 44.4005 -108.7458 121° Southeast  Level FlightAware Approximate
Tue 08:17:00 PM 44.3765 -108.6904 121° Southeast  Level FlightAware Approximate
Tue 08:18:00 PM 44.3457 -108.6419 133° Southeast  Level Estimated
Tue 08:19:00 PM 44.3187 -108.5893 126° Southeast  Level FlightAware Approximate
Tue 08:20:00 PM 44.2916 -108.5368 126° Southeast  Level FlightAware Approximate
Tue 08:21:00 PM 44.2645 -108.4843 126° Southeast  Level FlightAware Approximate
Tue 08:22:00 PM 44.2334 -108.4364 133° Southeast  Level Estimated
Tue 08:23:00 PM 44.2043 -108.3860 129° Southeast  Level FlightAware Approximate
Tue 08:24:00 PM 44.1751 -108.3358 129° Southeast  Level FlightAware Approximate
Tue 08:25:00 PM 44.1460 -108.2856 129° Southeast  Level FlightAware Approximate
Tue 08:26:00 PM 44.1168 -108.2354 129° Southeast  Level FlightAware Approximate
Tue 08:27:00 PM 44.0854 -108.1879 120° Southeast  Level Estimated
Tue 08:28:00 PM 44.0591 -108.1349 125° Southeast  Level FlightAware Approximate
Tue 08:29:00 PM 44.0327 -108.0818 125° Southeast  Level FlightAware Approximate
Tue 08:30:00 PM 44.0064 -108.0289 125° Southeast  Level FlightAware Approximate
Tue 08:31:00 PM 43.9744 -107.9822 128° Southeast  Level Estimated
Tue 08:32:00 PM 43.9472 -107.9301 126° Southeast  Level FlightAware Approximate
Tue 08:33:00 PM 43.9200 -107.8780 126° Southeast  Level FlightAware Approximate
Tue 08:34:00 PM 43.8928 -107.8260 126° Southeast  Level FlightAware Approximate
Tue 08:35:00 PM 43.8655 -107.7740 126° Southeast  Level FlightAware Approximate
Tue 08:36:00 PM 43.8382 -107.7221 126° Southeast  Level FlightAware Approximate
Tue 08:37:00 PM 43.8109 -107.6702 126° Southeast  Level FlightAware Approximate
Tue 08:38:00 PM 43.7778 -107.6252 125° Southeast  Level Estimated
Tue 08:38:02 PM 43.8786 -107.7828 123° Southeast 171 197 11,000  Level Denver Center
Tue 08:39:00 PM 43.7517 -107.5722 124° Southeast  Level FlightAware Approximate
Tue 08:40:00 PM 43.7255 -107.5193 124° Southeast  Level FlightAware Approximate
Tue 08:40:00 PM 43.8142 -107.6934 135° Southeast  Level Estimated
Tue 08:41:00 PM 43.6919 -107.4751 124° Southeast  Level Estimated
Tue 08:42:00 PM 43.6664 -107.4216 123° Southeast  Level FlightAware Approximate
Tue 08:43:00 PM 43.6409 -107.3682 123° Southeast  Level FlightAware Approximate
Tue 08:47:00 PM 43.5845 -107.3766 135° Southeast  Level Estimated
Tue 08:48:00 PM 43.5516 -107.3316 135° Southeast  Level Estimated
Tue 08:48:57 PM 43.4897 -107.0275 135° Southeast 188 216 11,000  Level Denver Center
Tue 08:49:00 PM 43.5187 -107.2866 135° Southeast  Level Estimated
Tue 08:50:00 PM 43.4858 -107.2416 135° Southeast  Level Estimated
Tue 08:50:05 PM 43.4594 -106.9725 127° Southeast 168 193 11,000  Level Salt Lake Center
Tue 08:51:00 PM 43.4528 -107.1967 135° Southeast  Level Estimated
Tue 08:51:06 PM 43.4308 -106.9133 124° Southeast 167 192 11,000  Level Salt Lake Center
Tue 08:52:00 PM 43.4199 -107.1519 135° Southeast  Level Estimated
Tue 08:52:08 PM 43.4036 -106.8644 127° Southeast 167 192 11,000  Level Salt Lake Center
Tue 08:53:00 PM 43.3869 -107.1070 135° Southeast  Level Estimated
Tue 08:53:10 PM 43.3775 -106.8161 127° Southeast 166 191 10,900  Level Salt Lake Center
Tue 08:54:00 PM 43.3539 -107.0623 135° Southeast  Level Estimated
Tue 08:54:11 PM 43.3314 -106.7764 148° Southeast 166 191 10,400  Level Salt Lake Center
Tue 08:55:13 PM 43.2858 -106.7483 156° South 174 200 10,000 -435 Descending Salt Lake Center
Tue 08:56:15 PM 43.2356 -106.7119 152° Southeast 180 207 9,500 -435 Descending Salt Lake Center
Tue 08:57:17 PM 43.1939 -106.6792 150° Southeast 181 208 9,100 -390 Descending Salt Lake Center
Tue 08:58:18 PM 43.1464 -106.6392 148° Southeast 181 208 8,700 -390 Descending Salt Lake Center
Tue 08:59:20 PM 43.1053 -106.6061 150° Southeast 180 207 8,300 -353 Descending Salt Lake Center
Tue 09:00:17 PM 43.0650 -106.5697 147° Southeast 179 206 8,000 -356 Descending Denver Center
Tue 09:01:18 PM 43.0244 -106.5328 146° Southeast 181 208 7,600 -488 Descending Denver Center
Tue 09:02:20 PM 42.9786 -106.4933 148° Southeast 178 205 7,000 -435 Descending Denver Center
Tue 09:03:22 PM 42.9414 -106.4589 146° Southeast 169 194 6,700 -290 Descending Denver Center

Login

Don't have an account? Register now (free) for customized features, flight alerts, and more!